sensor_id;sensor_type;location;lat;lon;timestamp;temperature;humidity
38118;DHT22;23928;47.562;7.508;2023-02-23T00:01:26;8.20;99.90
38118;DHT22;23928;47.562;7.508;2023-02-23T00:03:54;8.20;99.90
38118;DHT22;23928;47.562;7.508;2023-02-23T00:06:20;8.10;99.90
38118;DHT22;23928;47.562;7.508;2023-02-23T00:08:46;8.00;99.90
38118;DHT22;23928;47.562;7.508;2023-02-23T00:11:13;8.00;99.90
38118;DHT22;23928;47.562;7.508;2023-02-23T00:13:40;8.20;99.90
38118;DHT22;23928;47.562;7.508;2023-02-23T00:16:08;8.10;99.90
38118;DHT22;23928;47.562;7.508;2023-02-23T00:18:34;8.10;99.90
38118;DHT22;23928;47.562;7.508;2023-02-23T00:21:25;8.10;99.90
38118;DHT22;23928;47.562;7.508;2023-02-23T00:23:54;8.10;99.90
38118;DHT22;23928;47.562;7.508;2023-02-23T00:26:23;8.10;99.90
38118;DHT22;23928;47.562;7.508;2023-02-23T00:28:50;8.00;99.90
38118;DHT22;23928;47.562;7.508;2023-02-23T00:31:16;8.00;99.90
38118;DHT22;23928;47.562;7.508;2023-02-23T00:33:42;8.00;99.90
38118;DHT22;23928;47.562;7.508;2023-02-23T00:36:11;8.00;99.90
38118;DHT22;23928;47.562;7.508;2023-02-23T00:38:38;8.10;99.90
38118;DHT22;23928;47.562;7.508;2023-02-23T00:41:09;8.10;99.90
38118;DHT22;23928;47.562;7.508;2023-02-23T00:43:37;8.00;99.90
38118;DHT22;23928;47.562;7.508;2023-02-23T00:46:04;8.20;99.90
38118;DHT22;23928;47.562;7.508;2023-02-23T00:48:33;8.30;99.90
38118;DHT22;23928;47.562;7.508;2023-02-23T00:51:04;8.20;99.90
38118;DHT22;23928;47.562;7.508;2023-02-23T00:53:30;8.30;99.90
38118;DHT22;23928;47.562;7.508;2023-02-23T00:55:56;8.20;99.90
38118;DHT22;23928;47.562;7.508;2023-02-23T00:58:23;8.30;99.90
38118;DHT22;23928;47.562;7.508;2023-02-23T01:00:49;8.50;99.90
38118;DHT22;23928;47.562;7.508;2023-02-23T01:03:15;8.30;99.90
38118;DHT22;23928;47.562;7.508;2023-02-23T01:05:40;8.30;99.90
38118;DHT22;23928;47.562;7.508;2023-02-23T01:08:08;8.30;99.90
38118;DHT22;23928;47.562;7.508;2023-02-23T01:10:42;8.30;99.90
38118;DHT22;23928;47.562;7.508;2023-02-23T01:13:09;8.30;99.90
38118;DHT22;23928;47.562;7.508;2023-02-23T01:15:41;8.10;99.90
38118;DHT22;23928;47.562;7.508;2023-02-23T01:18:08;8.20;99.90
38118;DHT22;23928;47.562;7.508;2023-02-23T01:20:35;8.30;99.90
38118;DHT22;23928;47.562;7.508;2023-02-23T01:23:02;8.20;99.90
38118;DHT22;23928;47.562;7.508;2023-02-23T01:25:28;8.20;99.90
38118;DHT22;23928;47.562;7.508;2023-02-23T01:27:54;8.00;99.90
38118;DHT22;23928;47.562;7.508;2023-02-23T01:30:20;8.30;99.90
38118;DHT22;23928;47.562;7.508;2023-02-23T01:32:47;8.20;99.90
38118;DHT22;23928;47.562;7.508;2023-02-23T01:35:13;8.20;99.90
38118;DHT22;23928;47.562;7.508;2023-02-23T01:37:41;8.20;99.90
38118;DHT22;23928;47.562;7.508;2023-02-23T01:40:19;8.20;99.90
38118;DHT22;23928;47.562;7.508;2023-02-23T01:43:27;8.20;99.90
38118;DHT22;23928;47.562;7.508;2023-02-23T01:45:54;8.10;99.90
38118;DHT22;23928;47.562;7.508;2023-02-23T01:48:26;8.20;99.90
38118;DHT22;23928;47.562;7.508;2023-02-23T01:53:21;8.20;99.90
38118;DHT22;23928;47.562;7.508;2023-02-23T01:55:53;8.20;99.90
38118;DHT22;23928;47.562;7.508;2023-02-23T01:58:21;8.10;99.90
38118;DHT22;23928;47.562;7.508;2023-02-23T02:00:58;8.00;99.90
38118;DHT22;23928;47.562;7.508;2023-02-23T02:05:57;7.90;99.90
38118;DHT22;23928;47.562;7.508;2023-02-23T02:08:27;7.90;99.90
38118;DHT22;23928;47.562;7.508;2023-02-23T02:10:54;8.00;99.90
38118;DHT22;23928;47.562;7.508;2023-02-23T02:13:26;8.00;99.90
38118;DHT22;23928;47.562;7.508;2023-02-23T02:18:34;7.80;99.90
38118;DHT22;23928;47.562;7.508;2023-02-23T02:29:51;8.00;99.90
38118;DHT22;23928;47.562;7.508;2023-02-23T02:40:52;8.20;99.90
38118;DHT22;23928;47.562;7.508;2023-02-23T02:46:05;8.10;99.90
38118;DHT22;23928;47.562;7.508;2023-02-23T02:51:27;8.20;99.90
38118;DHT22;23928;47.562;7.508;2023-02-23T02:56:42;8.20;99.90
38118;DHT22;23928;47.562;7.508;2023-02-23T02:59:16;8.00;99.90
38118;DHT22;23928;47.562;7.508;2023-02-23T03:02:02;7.90;99.90
38118;DHT22;23928;47.562;7.508;2023-02-23T03:04:47;7.90;99.90
38118;DHT22;23928;47.562;7.508;2023-02-23T03:07:40;8.00;99.90
38118;DHT22;23928;47.562;7.508;2023-02-23T03:10:41;8.10;99.90
38118;DHT22;23928;47.562;7.508;2023-02-23T03:19:33;8.10;99.90
38118;DHT22;23928;47.562;7.508;2023-02-23T03:22:29;8.20;99.90
38118;DHT22;23928;47.562;7.508;2023-02-23T03:25:18;8.20;99.90
38118;DHT22;23928;47.562;7.508;2023-02-23T03:28:15;8.20;99.90
38118;DHT22;23928;47.562;7.508;2023-02-23T03:31:31;8.10;99.90
38118;DHT22;23928;47.562;7.508;2023-02-23T03:34:20;8.00;99.90
38118;DHT22;23928;47.562;7.508;2023-02-23T03:37:16;8.10;99.90
38118;DHT22;23928;47.562;7.508;2023-02-23T03:40:24;8.10;99.90
38118;DHT22;23928;47.562;7.508;2023-02-23T03:43:12;8.10;99.90
38118;DHT22;23928;47.562;7.508;2023-02-23T03:46:00;8.20;99.90
38118;DHT22;23928;47.562;7.508;2023-02-23T03:48:47;8.20;99.90
38118;DHT22;23928;47.562;7.508;2023-02-23T03:51:35;8.20;99.90
38118;DHT22;23928;47.562;7.508;2023-02-23T03:54:34;8.20;99.90
38118;DHT22;23928;47.562;7.508;2023-02-23T03:57:20;8.10;99.90
38118;DHT22;23928;47.562;7.508;2023-02-23T04:00:10;8.20;99.90
38118;DHT22;23928;47.562;7.508;2023-02-23T04:02:57;8.00;99.90
38118;DHT22;23928;47.562;7.508;2023-02-23T04:05:44;7.90;99.90
38118;DHT22;23928;47.562;7.508;2023-02-23T04:08:33;8.10;99.90
38118;DHT22;23928;47.562;7.508;2023-02-23T04:14:07;8.20;99.90
38118;DHT22;23928;47.562;7.508;2023-02-23T04:16:38;8.10;99.90
38118;DHT22;23928;47.562;7.508;2023-02-23T04:19:05;8.10;99.90
38118;DHT22;23928;47.562;7.508;2023-02-23T04:21:30;8.30;99.90
38118;DHT22;23928;47.562;7.508;2023-02-23T04:23:56;8.20;99.90
38118;DHT22;23928;47.562;7.508;2023-02-23T04:26:21;8.20;99.90
38118;DHT22;23928;47.562;7.508;2023-02-23T04:28:47;8.30;99.90
38118;DHT22;23928;47.562;7.508;2023-02-23T04:31:12;8.30;99.90
38118;DHT22;23928;47.562;7.508;2023-02-23T04:33:38;8.30;99.90
38118;DHT22;23928;47.562;7.508;2023-02-23T04:36:04;8.40;99.90
38118;DHT22;23928;47.562;7.508;2023-02-23T04:38:29;8.30;99.90
38118;DHT22;23928;47.562;7.508;2023-02-23T04:40:55;8.20;99.90
38118;DHT22;23928;47.562;7.508;2023-02-23T04:43:21;8.30;99.90
38118;DHT22;23928;47.562;7.508;2023-02-23T04:45:46;8.30;99.90
38118;DHT22;23928;47.562;7.508;2023-02-23T04:48:12;8.30;99.90
38118;DHT22;23928;47.562;7.508;2023-02-23T04:50:38;8.30;99.90
38118;DHT22;23928;47.562;7.508;2023-02-23T04:53:04;8.20;99.90
38118;DHT22;23928;47.562;7.508;2023-02-23T04:55:30;8.20;99.90
38118;DHT22;23928;47.562;7.508;2023-02-23T04:57:59;8.20;99.90
38118;DHT22;23928;47.562;7.508;2023-02-23T05:00:25;8.20;99.90
38118;DHT22;23928;47.562;7.508;2023-02-23T05:02:51;8.30;99.90
38118;DHT22;23928;47.562;7.508;2023-02-23T05:05:17;8.30;99.90
38118;DHT22;23928;47.562;7.508;2023-02-23T05:07:43;8.20;99.90
38118;DHT22;23928;47.562;7.508;2023-02-23T05:10:09;8.40;99.90
38118;DHT22;23928;47.562;7.508;2023-02-23T05:12:35;8.30;99.90
38118;DHT22;23928;47.562;7.508;2023-02-23T05:15:01;8.30;99.90
38118;DHT22;23928;47.562;7.508;2023-02-23T05:17:27;8.10;99.90
38118;DHT22;23928;47.562;7.508;2023-02-23T05:19:52;8.20;99.90
38118;DHT22;23928;47.562;7.508;2023-02-23T05:22:18;8.10;99.90
38118;DHT22;23928;47.562;7.508;2023-02-23T05:24:44;8.20;99.90
38118;DHT22;23928;47.562;7.508;2023-02-23T05:27:10;8.20;99.90
38118;DHT22;23928;47.562;7.508;2023-02-23T05:29:38;8.20;99.90
38118;DHT22;23928;47.562;7.508;2023-02-23T05:32:04;8.20;99.90
38118;DHT22;23928;47.562;7.508;2023-02-23T05:34:29;8.10;99.90
38118;DHT22;23928;47.562;7.508;2023-02-23T05:36:55;8.30;99.90
38118;DHT22;23928;47.562;7.508;2023-02-23T05:39:20;8.10;99.90
38118;DHT22;23928;47.562;7.508;2023-02-23T05:41:46;8.10;99.90
38118;DHT22;23928;47.562;7.508;2023-02-23T05:44:12;8.10;99.90
38118;DHT22;23928;47.562;7.508;2023-02-23T05:46:38;8.30;99.90
38118;DHT22;23928;47.562;7.508;2023-02-23T05:49:03;8.10;99.90
38118;DHT22;23928;47.562;7.508;2023-02-23T05:51:31;8.00;99.90
38118;DHT22;23928;47.562;7.508;2023-02-23T05:53:56;8.10;99.90
38118;DHT22;23928;47.562;7.508;2023-02-23T05:56:22;7.90;99.90
38118;DHT22;23928;47.562;7.508;2023-02-23T05:58:49;7.90;99.90
38118;DHT22;23928;47.562;7.508;2023-02-23T06:01:15;7.90;99.90
38118;DHT22;23928;47.562;7.508;2023-02-23T06:03:42;8.00;99.90
38118;DHT22;23928;47.562;7.508;2023-02-23T06:06:08;8.00;99.90
38118;DHT22;23928;47.562;7.508;2023-02-23T06:08:33;8.00;99.90
38118;DHT22;23928;47.562;7.508;2023-02-23T06:10:59;7.90;99.90
38118;DHT22;23928;47.562;7.508;2023-02-23T06:13:25;7.90;99.90
38118;DHT22;23928;47.562;7.508;2023-02-23T06:15:51;7.90;99.90
38118;DHT22;23928;47.562;7.508;2023-02-23T06:18:16;7.90;99.90
38118;DHT22;23928;47.562;7.508;2023-02-23T06:20:43;7.90;99.90
38118;DHT22;23928;47.562;7.508;2023-02-23T06:23:10;8.00;99.90
38118;DHT22;23928;47.562;7.508;2023-02-23T06:25:36;8.00;99.90
38118;DHT22;23928;47.562;7.508;2023-02-23T06:28:02;8.10;99.90
38118;DHT22;23928;47.562;7.508;2023-02-23T06:30:28;8.20;99.90
38118;DHT22;23928;47.562;7.508;2023-02-23T06:32:54;8.30;99.90
38118;DHT22;23928;47.562;7.508;2023-02-23T06:35:19;8.30;99.90
38118;DHT22;23928;47.562;7.508;2023-02-23T06:37:45;8.40;99.90
38118;DHT22;23928;47.562;7.508;2023-02-23T06:40:11;8.20;99.90
38118;DHT22;23928;47.562;7.508;2023-02-23T06:42:37;8.20;99.90
38118;DHT22;23928;47.562;7.508;2023-02-23T06:45:03;8.20;99.90
38118;DHT22;23928;47.562;7.508;2023-02-23T06:47:29;8.20;99.90
38118;DHT22;23928;47.562;7.508;2023-02-23T06:49:54;8.10;99.90
38118;DHT22;23928;47.562;7.508;2023-02-23T06:52:20;8.00;99.90
38118;DHT22;23928;47.562;7.508;2023-02-23T06:54:46;8.10;99.90
38118;DHT22;23928;47.562;7.508;2023-02-23T06:57:12;8.00;99.90
38118;DHT22;23928;47.562;7.508;2023-02-23T06:59:38;7.90;99.90
38118;DHT22;23928;47.562;7.508;2023-02-23T07:02:04;8.00;99.90
38118;DHT22;23928;47.562;7.508;2023-02-23T07:04:30;8.10;99.90
38118;DHT22;23928;47.562;7.508;2023-02-23T07:06:56;8.10;99.90
38118;DHT22;23928;47.562;7.508;2023-02-23T07:09:22;8.10;99.90
38118;DHT22;23928;47.562;7.508;2023-02-23T07:11:48;8.20;99.90
38118;DHT22;23928;47.562;7.508;2023-02-23T07:14:13;8.10;99.90
38118;DHT22;23928;47.562;7.508;2023-02-23T07:16:39;8.00;99.90
38118;DHT22;23928;47.562;7.508;2023-02-23T07:19:06;8.00;99.90
38118;DHT22;23928;47.562;7.508;2023-02-23T07:21:32;8.00;99.90
38118;DHT22;23928;47.562;7.508;2023-02-23T07:23:58;8.10;99.90
38118;DHT22;23928;47.562;7.508;2023-02-23T07:26:24;8.00;99.90
38118;DHT22;23928;47.562;7.508;2023-02-23T07:28:50;8.20;99.90
38118;DHT22;23928;47.562;7.508;2023-02-23T07:31:15;8.20;99.90
38118;DHT22;23928;47.562;7.508;2023-02-23T07:33:41;8.30;99.90
38118;DHT22;23928;47.562;7.508;2023-02-23T07:36:08;8.30;99.90
38118;DHT22;23928;47.562;7.508;2023-02-23T07:38:33;8.40;99.90
38118;DHT22;23928;47.562;7.508;2023-02-23T07:41:01;8.40;99.90
38118;DHT22;23928;47.562;7.508;2023-02-23T07:43:26;8.40;99.90
38118;DHT22;23928;47.562;7.508;2023-02-23T07:45:52;8.40;99.90
38118;DHT22;23928;47.562;7.508;2023-02-23T07:48:18;8.40;99.90
38118;DHT22;23928;47.562;7.508;2023-02-23T07:50:44;8.50;99.90
38118;DHT22;23928;47.562;7.508;2023-02-23T07:53:10;8.50;99.90
38118;DHT22;23928;47.562;7.508;2023-02-23T07:55:36;8.40;99.90
38118;DHT22;23928;47.562;7.508;2023-02-23T07:58:05;8.60;99.90
38118;DHT22;23928;47.562;7.508;2023-02-23T08:00:32;8.60;99.90
38118;DHT22;23928;47.562;7.508;2023-02-23T08:02:58;8.70;99.90
38118;DHT22;23928;47.562;7.508;2023-02-23T08:05:24;8.80;99.90
38118;DHT22;23928;47.562;7.508;2023-02-23T08:07:54;8.70;99.90
38118;DHT22;23928;47.562;7.508;2023-02-23T08:10:21;8.80;99.90
38118;DHT22;23928;47.562;7.508;2023-02-23T08:12:46;9.00;99.90
38118;DHT22;23928;47.562;7.508;2023-02-23T08:15:12;9.00;99.90
38118;DHT22;23928;47.562;7.508;2023-02-23T08:17:38;9.10;99.90
38118;DHT22;23928;47.562;7.508;2023-02-23T08:20:05;9.20;99.90
38118;DHT22;23928;47.562;7.508;2023-02-23T08:22:31;9.30;99.90
38118;DHT22;23928;47.562;7.508;2023-02-23T08:24:57;9.40;99.90
38118;DHT22;23928;47.562;7.508;2023-02-23T08:27:23;9.40;99.90
38118;DHT22;23928;47.562;7.508;2023-02-23T08:29:49;9.40;99.90
38118;DHT22;23928;47.562;7.508;2023-02-23T08:32:17;9.50;99.90
38118;DHT22;23928;47.562;7.508;2023-02-23T08:34:43;9.70;99.90
38118;DHT22;23928;47.562;7.508;2023-02-23T08:37:09;9.70;99.90
38118;DHT22;23928;47.562;7.508;2023-02-23T08:39:35;9.80;99.90
38118;DHT22;23928;47.562;7.508;2023-02-23T08:42:02;9.90;99.90
38118;DHT22;23928;47.562;7.508;2023-02-23T08:44:27;10.00;99.90
38118;DHT22;23928;47.562;7.508;2023-02-23T08:46:53;10.00;99.90
38118;DHT22;23928;47.562;7.508;2023-02-23T08:49:20;10.10;99.90
38118;DHT22;23928;47.562;7.508;2023-02-23T08:51:46;10.10;99.90
38118;DHT22;23928;47.562;7.508;2023-02-23T08:54:12;10.00;99.90
38118;DHT22;23928;47.562;7.508;2023-02-23T08:56:43;10.10;99.90
38118;DHT22;23928;47.562;7.508;2023-02-23T08:59:10;10.00;99.90
38118;DHT22;23928;47.562;7.508;2023-02-23T09:01:36;10.10;99.90
38118;DHT22;23928;47.562;7.508;2023-02-23T09:04:02;10.10;99.90
38118;DHT22;23928;47.562;7.508;2023-02-23T09:06:29;10.20;99.90
38118;DHT22;23928;47.562;7.508;2023-02-23T09:08:55;10.30;99.90
38118;DHT22;23928;47.562;7.508;2023-02-23T09:11:21;10.50;99.90
38118;DHT22;23928;47.562;7.508;2023-02-23T09:13:48;10.50;99.90
38118;DHT22;23928;47.562;7.508;2023-02-23T09:16:13;10.60;99.90
38118;DHT22;23928;47.562;7.508;2023-02-23T09:18:39;10.60;99.90
38118;DHT22;23928;47.562;7.508;2023-02-23T09:21:07;10.60;99.90
38118;DHT22;23928;47.562;7.508;2023-02-23T09:23:33;10.70;99.90
38118;DHT22;23928;47.562;7.508;2023-02-23T09:26:07;10.60;99.90
38118;DHT22;23928;47.562;7.508;2023-02-23T09:28:34;10.70;99.90
38118;DHT22;23928;47.562;7.508;2023-02-23T09:31:26;10.90;99.90
38118;DHT22;23928;47.562;7.508;2023-02-23T09:33:53;11.10;99.90
38118;DHT22;23928;47.562;7.508;2023-02-23T09:36:22;11.20;99.90
38118;DHT22;23928;47.562;7.508;2023-02-23T09:38:50;11.20;99.90
38118;DHT22;23928;47.562;7.508;2023-02-23T09:44:15;11.30;99.90
38118;DHT22;23928;47.562;7.508;2023-02-23T09:47:08;11.40;99.90
38118;DHT22;23928;47.562;7.508;2023-02-23T09:49:39;11.70;99.90
38118;DHT22;23928;47.562;7.508;2023-02-23T09:52:14;11.80;99.90
38118;DHT22;23928;47.562;7.508;2023-02-23T09:54:40;11.60;99.90
38118;DHT22;23928;47.562;7.508;2023-02-23T09:57:13;11.60;99.90
38118;DHT22;23928;47.562;7.508;2023-02-23T09:59:39;11.80;99.90
38118;DHT22;23928;47.562;7.508;2023-02-23T10:04:48;11.80;99.90
38118;DHT22;23928;47.562;7.508;2023-02-23T10:15:52;11.80;99.90
38118;DHT22;23928;47.562;7.508;2023-02-23T10:21:06;12.10;99.90
38118;DHT22;23928;47.562;7.508;2023-02-23T10:26:06;12.10;99.90
38118;DHT22;23928;47.562;7.508;2023-02-23T10:28:39;12.10;99.90
38118;DHT22;23928;47.562;7.508;2023-02-23T10:31:32;12.10;99.90
38118;DHT22;23928;47.562;7.508;2023-02-23T10:34:05;12.20;99.90
38118;DHT22;23928;47.562;7.508;2023-02-23T10:36:42;12.10;99.90
38118;DHT22;23928;47.562;7.508;2023-02-23T10:39:11;12.20;99.90
38118;DHT22;23928;47.562;7.508;2023-02-23T10:41:38;12.20;99.90
38118;DHT22;23928;47.562;7.508;2023-02-23T10:44:05;12.10;99.90
38118;DHT22;23928;47.562;7.508;2023-02-23T10:46:38;12.30;99.90
38118;DHT22;23928;47.562;7.508;2023-02-23T10:49:06;12.50;99.90
38118;DHT22;23928;47.562;7.508;2023-02-23T10:51:36;12.60;99.90
38118;DHT22;23928;47.562;7.508;2023-02-23T10:54:35;12.80;99.90
38118;DHT22;23928;47.562;7.508;2023-02-23T10:57:02;12.60;99.90
38118;DHT22;23928;47.562;7.508;2023-02-23T10:59:28;12.50;99.90
38118;DHT22;23928;47.562;7.508;2023-02-23T11:01:54;12.60;99.90
38118;DHT22;23928;47.562;7.508;2023-02-23T11:04:25;12.40;99.90
38118;DHT22;23928;47.562;7.508;2023-02-23T11:07:09;12.60;99.90
38118;DHT22;23928;47.562;7.508;2023-02-23T11:09:39;12.40;99.90
38118;DHT22;23928;47.562;7.508;2023-02-23T11:12:26;12.20;99.90
38118;DHT22;23928;47.562;7.508;2023-02-23T11:14:55;12.10;99.90
38118;DHT22;23928;47.562;7.508;2023-02-23T11:17:30;12.40;99.90
38118;DHT22;23928;47.562;7.508;2023-02-23T11:19:58;12.50;99.90
38118;DHT22;23928;47.562;7.508;2023-02-23T11:22:30;12.50;99.90
38118;DHT22;23928;47.562;7.508;2023-02-23T11:24:56;12.30;99.90
38118;DHT22;23928;47.562;7.508;2023-02-23T11:27:24;12.30;99.90
38118;DHT22;23928;47.562;7.508;2023-02-23T11:29:53;12.40;99.90
38118;DHT22;23928;47.562;7.508;2023-02-23T11:32:22;12.30;99.90
38118;DHT22;23928;47.562;7.508;2023-02-23T11:35:28;12.40;99.90
38118;DHT22;23928;47.562;7.508;2023-02-23T11:37:54;12.50;99.90
38118;DHT22;23928;47.562;7.508;2023-02-23T11:40:24;12.60;99.90
38118;DHT22;23928;47.562;7.508;2023-02-23T11:48:22;12.90;99.90
38118;DHT22;23928;47.562;7.508;2023-02-23T11:50:51;13.30;99.90
38118;DHT22;23928;47.562;7.508;2023-02-23T11:53:24;13.40;99.90
38118;DHT22;23928;47.562;7.508;2023-02-23T11:55:54;13.50;99.90
38118;DHT22;23928;47.562;7.508;2023-02-23T11:58:42;13.80;99.90
38118;DHT22;23928;47.562;7.508;2023-02-23T12:01:11;13.60;99.90
38118;DHT22;23928;47.562;7.508;2023-02-23T12:03:50;13.30;99.90
38118;DHT22;23928;47.562;7.508;2023-02-23T12:06:40;13.40;99.90
38118;DHT22;23928;47.562;7.508;2023-02-23T12:09:25;13.20;99.90
38118;DHT22;23928;47.562;7.508;2023-02-23T12:12:08;13.00;99.90
38118;DHT22;23928;47.562;7.508;2023-02-23T12:14:40;13.10;99.90
38118;DHT22;23928;47.562;7.508;2023-02-23T12:17:15;13.20;99.90
38118;DHT22;23928;47.562;7.508;2023-02-23T12:22:38;13.10;99.90
38118;DHT22;23928;47.562;7.508;2023-02-23T12:25:26;13.20;99.90
38118;DHT22;23928;47.562;7.508;2023-02-23T12:33:43;13.00;99.90
38118;DHT22;23928;47.562;7.508;2023-02-23T12:39:09;12.80;99.90
38118;DHT22;23928;47.562;7.508;2023-02-23T12:44:51;12.90;99.90
38118;DHT22;23928;47.562;7.508;2023-02-23T12:47:48;13.10;99.90
38118;DHT22;23928;47.562;7.508;2023-02-23T12:58:58;13.80;99.90
38118;DHT22;23928;47.562;7.508;2023-02-23T13:01:35;13.70;99.90
38118;DHT22;23928;47.562;7.508;2023-02-23T13:06:56;13.70;99.90
38118;DHT22;23928;47.562;7.508;2023-02-23T13:19:56;13.70;99.90
38118;DHT22;23928;47.562;7.508;2023-02-23T13:22:34;13.80;99.90
38118;DHT22;23928;47.562;7.508;2023-02-23T13:25:07;13.80;99.90
38118;DHT22;23928;47.562;7.508;2023-02-23T13:27:44;14.00;99.90
38118;DHT22;23928;47.562;7.508;2023-02-23T13:30:12;13.70;99.90
38118;DHT22;23928;47.562;7.508;2023-02-23T13:32:41;13.60;99.90
38118;DHT22;23928;47.562;7.508;2023-02-23T13:35:13;13.50;99.90
38118;DHT22;23928;47.562;7.508;2023-02-23T13:51:42;13.60;99.90
38118;DHT22;23928;47.562;7.508;2023-02-23T13:56:47;13.70;99.90
38118;DHT22;23928;47.562;7.508;2023-02-23T13:59:19;13.60;99.90
38118;DHT22;23928;47.562;7.508;2023-02-23T14:01:48;13.70;99.90
38118;DHT22;23928;47.562;7.508;2023-02-23T14:07:02;13.70;99.90
38118;DHT22;23928;47.562;7.508;2023-02-23T14:09:34;13.70;99.90
38118;DHT22;23928;47.562;7.508;2023-02-23T14:14:41;13.80;99.90
38118;DHT22;23928;47.562;7.508;2023-02-23T14:17:37;13.80;99.90
38118;DHT22;23928;47.562;7.508;2023-02-23T14:20:13;13.60;99.90
38118;DHT22;23928;47.562;7.508;2023-02-23T14:26:07;13.60;99.90
38118;DHT22;23928;47.562;7.508;2023-02-23T14:28:37;13.60;99.90
38118;DHT22;23928;47.562;7.508;2023-02-23T14:41:28;13.30;99.90
38118;DHT22;23928;47.562;7.508;2023-02-23T14:43:59;13.30;99.90
38118;DHT22;23928;47.562;7.508;2023-02-23T14:46:27;13.40;99.90
38118;DHT22;23928;47.562;7.508;2023-02-23T14:48:57;13.40;99.90
38118;DHT22;23928;47.562;7.508;2023-02-23T14:54:00;13.30;99.90
38118;DHT22;23928;47.562;7.508;2023-02-23T14:56:44;13.40;99.90
38118;DHT22;23928;47.562;7.508;2023-02-23T14:59:18;13.30;99.90
38118;DHT22;23928;47.562;7.508;2023-02-23T15:01:46;13.30;99.90
38118;DHT22;23928;47.562;7.508;2023-02-23T15:04:16;13.30;99.90
38118;DHT22;23928;47.562;7.508;2023-02-23T15:06:43;13.40;99.90
38118;DHT22;23928;47.562;7.508;2023-02-23T15:09:24;13.40;99.90
38118;DHT22;23928;47.562;7.508;2023-02-23T15:11:55;13.50;99.90
38118;DHT22;23928;47.562;7.508;2023-02-23T15:14:23;13.50;99.90
38118;DHT22;23928;47.562;7.508;2023-02-23T15:16:49;13.40;99.90
38118;DHT22;23928;47.562;7.508;2023-02-23T15:19:18;13.40;99.90
38118;DHT22;23928;47.562;7.508;2023-02-23T15:21:55;13.40;99.90
38118;DHT22;23928;47.562;7.508;2023-02-23T15:24:25;13.30;99.90
38118;DHT22;23928;47.562;7.508;2023-02-23T15:26:53;13.40;99.90
38118;DHT22;23928;47.562;7.508;2023-02-23T15:29:46;13.40;99.90
38118;DHT22;23928;47.562;7.508;2023-02-23T15:32:23;13.40;99.90
38118;DHT22;23928;47.562;7.508;2023-02-23T15:34:51;13.30;99.90
38118;DHT22;23928;47.562;7.508;2023-02-23T15:37:33;13.30;99.90
38118;DHT22;23928;47.562;7.508;2023-02-23T15:40:03;13.30;99.90
38118;DHT22;23928;47.562;7.508;2023-02-23T15:42:54;13.30;99.90
38118;DHT22;23928;47.562;7.508;2023-02-23T15:47:55;13.10;99.90
38118;DHT22;23928;47.562;7.508;2023-02-23T15:50:24;13.10;99.90
38118;DHT22;23928;47.562;7.508;2023-02-23T15:52:58;13.10;99.90
38118;DHT22;23928;47.562;7.508;2023-02-23T15:55:27;13.00;99.90
38118;DHT22;23928;47.562;7.508;2023-02-23T15:57:57;12.90;99.90
38118;DHT22;23928;47.562;7.508;2023-02-23T16:00:36;12.80;99.90
38118;DHT22;23928;47.562;7.508;2023-02-23T16:03:04;12.80;99.90
38118;DHT22;23928;47.562;7.508;2023-02-23T16:05:31;12.80;99.90
38118;DHT22;23928;47.562;7.508;2023-02-23T16:08:04;12.80;99.90
38118;DHT22;23928;47.562;7.508;2023-02-23T16:10:42;12.90;99.90
38118;DHT22;23928;47.562;7.508;2023-02-23T16:13:11;12.80;99.90
38118;DHT22;23928;47.562;7.508;2023-02-23T16:15:38;12.80;99.90
38118;DHT22;23928;47.562;7.508;2023-02-23T16:18:09;12.90;99.90
38118;DHT22;23928;47.562;7.508;2023-02-23T16:20:37;12.70;99.90
38118;DHT22;23928;47.562;7.508;2023-02-23T16:23:10;12.70;99.90
38118;DHT22;23928;47.562;7.508;2023-02-23T16:25:41;12.70;99.90
38118;DHT22;23928;47.562;7.508;2023-02-23T16:28:16;12.30;99.90
38118;DHT22;23928;47.562;7.508;2023-02-23T16:30:49;12.30;99.90
38118;DHT22;23928;47.562;7.508;2023-02-23T16:33:45;12.20;99.90
38118;DHT22;23928;47.562;7.508;2023-02-23T16:36:21;12.10;99.90
38118;DHT22;23928;47.562;7.508;2023-02-23T16:39:05;11.90;99.90
38118;DHT22;23928;47.562;7.508;2023-02-23T16:41:33;11.90;99.90
38118;DHT22;23928;47.562;7.508;2023-02-23T16:44:00;11.90;99.90
38118;DHT22;23928;47.562;7.508;2023-02-23T16:46:30;11.80;99.90
38118;DHT22;23928;47.562;7.508;2023-02-23T16:48:57;11.70;99.90
38118;DHT22;23928;47.562;7.508;2023-02-23T16:51:25;11.60;99.90
38118;DHT22;23928;47.562;7.508;2023-02-23T16:53:51;11.50;99.90
38118;DHT22;23928;47.562;7.508;2023-02-23T16:56:19;11.50;99.90
38118;DHT22;23928;47.562;7.508;2023-02-23T16:58:53;11.40;99.90
38118;DHT22;23928;47.562;7.508;2023-02-23T17:01:20;11.20;99.90
38118;DHT22;23928;47.562;7.508;2023-02-23T17:03:46;11.10;99.90
38118;DHT22;23928;47.562;7.508;2023-02-23T17:06:12;11.00;99.90
38118;DHT22;23928;47.562;7.508;2023-02-23T17:08:38;10.80;99.90
38118;DHT22;23928;47.562;7.508;2023-02-23T17:11:04;10.70;99.90
38118;DHT22;23928;47.562;7.508;2023-02-23T17:13:31;10.70;99.90
38118;DHT22;23928;47.562;7.508;2023-02-23T17:16:05;10.40;99.90
38118;DHT22;23928;47.562;7.508;2023-02-23T17:18:34;10.30;99.90
38118;DHT22;23928;47.562;7.508;2023-02-23T17:21:04;10.30;99.90
38118;DHT22;23928;47.562;7.508;2023-02-23T17:23:32;10.20;99.90
38118;DHT22;23928;47.562;7.508;2023-02-23T17:26:17;10.20;99.90
38118;DHT22;23928;47.562;7.508;2023-02-23T17:28:43;10.20;99.90
38118;DHT22;23928;47.562;7.508;2023-02-23T17:31:09;10.20;99.90
38118;DHT22;23928;47.562;7.508;2023-02-23T17:33:35;10.10;99.90
38118;DHT22;23928;47.562;7.508;2023-02-23T17:36:05;9.90;99.90
38118;DHT22;23928;47.562;7.508;2023-02-23T17:38:31;9.80;99.90
38118;DHT22;23928;47.562;7.508;2023-02-23T17:41:05;9.90;99.90
38118;DHT22;23928;47.562;7.508;2023-02-23T17:43:32;10.00;99.90
38118;DHT22;23928;47.562;7.508;2023-02-23T17:45:57;9.90;99.90
38118;DHT22;23928;47.562;7.508;2023-02-23T17:48:25;9.70;99.90
38118;DHT22;23928;47.562;7.508;2023-02-23T17:51:05;9.60;99.90
38118;DHT22;23928;47.562;7.508;2023-02-23T17:53:33;9.60;99.90
38118;DHT22;23928;47.562;7.508;2023-02-23T17:55:58;9.70;99.90
38118;DHT22;23928;47.562;7.508;2023-02-23T17:58:24;9.80;99.90
38118;DHT22;23928;47.562;7.508;2023-02-23T18:00:54;9.70;99.90
38118;DHT22;23928;47.562;7.508;2023-02-23T18:03:21;9.60;99.90
38118;DHT22;23928;47.562;7.508;2023-02-23T18:05:47;9.60;99.90
38118;DHT22;23928;47.562;7.508;2023-02-23T18:08:12;9.60;99.90
38118;DHT22;23928;47.562;7.508;2023-02-23T18:10:38;9.50;99.90
38118;DHT22;23928;47.562;7.508;2023-02-23T18:13:04;9.30;99.90
38118;DHT22;23928;47.562;7.508;2023-02-23T18:15:31;8.90;99.90
38118;DHT22;23928;47.562;7.508;2023-02-23T18:17:59;8.70;99.90
38118;DHT22;23928;47.562;7.508;2023-02-23T18:20:27;9.00;99.90
38118;DHT22;23928;47.562;7.508;2023-02-23T18:22:53;8.90;99.90
38118;DHT22;23928;47.562;7.508;2023-02-23T18:25:29;8.90;99.90
38118;DHT22;23928;47.562;7.508;2023-02-23T18:27:55;8.90;99.90